sensor_id;sensor_type;location;lat;lon;timestamp;pressure;altitude;pressure_sealevel;temperature;humidity
14882;BME280;7533;51.278;12.588;2023-03-31T00:04:15;99271.72;;;21.90;64.28
14882;BME280;7533;51.278;12.588;2023-03-31T00:09:19;99275.66;;;21.86;64.39
14882;BME280;7533;51.278;12.588;2023-03-31T00:14:23;99275.34;;;21.79;64.47
14882;BME280;7533;51.278;12.588;2023-03-31T00:19:27;99270.34;;;21.75;64.56
14882;BME280;7533;51.278;12.588;2023-03-31T00:24:30;99278.44;;;21.75;64.77
14882;BME280;7533;51.278;12.588;2023-03-31T00:29:34;99268.66;;;21.74;64.72
14882;BME280;7533;51.278;12.588;2023-03-31T00:34:38;99249.34;;;21.69;64.84
14882;BME280;7533;51.278;12.588;2023-03-31T00:39:42;99238.81;;;21.65;65.00
14882;BME280;7533;51.278;12.588;2023-03-31T00:50:26;99233.97;;;21.59;65.08
14882;BME280;7533;51.278;12.588;2023-03-31T00:55:32;99222.63;;;21.56;65.14
14882;BME280;7533;51.278;12.588;2023-03-31T01:00:37;99219.34;;;21.52;65.18
14882;BME280;7533;51.278;12.588;2023-03-31T01:05:45;99209.81;;;21.48;65.31
14882;BME280;7533;51.278;12.588;2023-03-31T01:10:53;99201.19;;;21.45;65.59
14882;BME280;7533;51.278;12.588;2023-03-31T01:15:56;99191.50;;;21.42;65.71
14882;BME280;7533;51.278;12.588;2023-03-31T01:21:23;99176.34;;;21.41;65.54
14882;BME280;7533;51.278;12.588;2023-03-31T01:26:53;99172.22;;;21.37;65.80
14882;BME280;7533;51.278;12.588;2023-03-31T01:32:12;99152.81;;;21.33;66.09
14882;BME280;7533;51.278;12.588;2023-03-31T01:43:18;99139.84;;;21.27;66.45
14882;BME280;7533;51.278;12.588;2023-03-31T01:48:32;99129.94;;;21.28;66.33
14882;BME280;7533;51.278;12.588;2023-03-31T01:53:45;99119.44;;;21.25;66.52
14882;BME280;7533;51.278;12.588;2023-03-31T01:58:53;99118.72;;;21.23;66.80
14882;BME280;7533;51.278;12.588;2023-03-31T02:04:04;99118.97;;;21.20;66.79
14882;BME280;7533;51.278;12.588;2023-03-31T02:09:12;99116.56;;;21.17;66.99
14882;BME280;7533;51.278;12.588;2023-03-31T02:14:21;99113.13;;;21.14;67.03
14882;BME280;7533;51.278;12.588;2023-03-31T02:19:28;99112.28;;;21.14;67.02
14882;BME280;7533;51.278;12.588;2023-03-31T02:24:35;99109.97;;;21.09;67.06
14882;BME280;7533;51.278;12.588;2023-03-31T02:29:40;99096.81;;;21.06;67.28
14882;BME280;7533;51.278;12.588;2023-03-31T02:34:43;99087.16;;;21.04;67.36
14882;BME280;7533;51.278;12.588;2023-03-31T02:39:48;99081.06;;;21.02;67.36
14882;BME280;7533;51.278;12.588;2023-03-31T02:44:53;99068.75;;;20.99;67.24
14882;BME280;7533;51.278;12.588;2023-03-31T02:49:58;99057.25;;;20.97;67.57
14882;BME280;7533;51.278;12.588;2023-03-31T02:55:29;99055.69;;;20.95;67.45
14882;BME280;7533;51.278;12.588;2023-03-31T03:00:55;99041.41;;;20.94;67.39
14882;BME280;7533;51.278;12.588;2023-03-31T03:06:10;99028.91;;;20.93;67.75
14882;BME280;7533;51.278;12.588;2023-03-31T03:11:41;99028.34;;;20.90;67.85
14882;BME280;7533;51.278;12.588;2023-03-31T03:16:52;99022.13;;;20.89;67.90
14882;BME280;7533;51.278;12.588;2023-03-31T03:21:58;99018.56;;;20.89;67.90
14882;BME280;7533;51.278;12.588;2023-03-31T03:27:01;99008.81;;;20.88;67.92
14882;BME280;7533;51.278;12.588;2023-03-31T03:32:05;99007.34;;;20.83;67.76
14882;BME280;7533;51.278;12.588;2023-03-31T03:37:08;98995.88;;;20.81;67.70
14882;BME280;7533;51.278;12.588;2023-03-31T03:42:11;99002.97;;;20.82;67.53
14882;BME280;7533;51.278;12.588;2023-03-31T03:47:15;98993.47;;;20.78;67.58
14882;BME280;7533;51.278;12.588;2023-03-31T03:52:18;98983.56;;;20.79;67.66
14882;BME280;7533;51.278;12.588;2023-03-31T03:57:21;98987.09;;;20.79;67.33
14882;BME280;7533;51.278;12.588;2023-03-31T04:02:25;98973.50;;;20.81;67.10
14882;BME280;7533;51.278;12.588;2023-03-31T04:07:30;98968.13;;;20.81;66.95
14882;BME280;7533;51.278;12.588;2023-03-31T04:12:33;98958.38;;;20.80;67.33
14882;BME280;7533;51.278;12.588;2023-03-31T04:17:37;98943.22;;;20.79;66.92
14882;BME280;7533;51.278;12.588;2023-03-31T04:22:40;98941.78;;;20.75;66.91
14882;BME280;7533;51.278;12.588;2023-03-31T04:27:44;98941.06;;;20.73;66.96
14882;BME280;7533;51.278;12.588;2023-03-31T04:32:54;98925.19;;;20.70;66.81
14882;BME280;7533;51.278;12.588;2023-03-31T04:37:58;98922.50;;;20.70;66.91
14882;BME280;7533;51.278;12.588;2023-03-31T04:43:01;98917.13;;;20.70;66.82
14882;BME280;7533;51.278;12.588;2023-03-31T04:48:05;98906.53;;;20.68;66.78
14882;BME280;7533;51.278;12.588;2023-03-31T04:53:08;98893.22;;;20.67;66.84
14882;BME280;7533;51.278;12.588;2023-03-31T04:58:11;98879.03;;;20.65;66.90
14882;BME280;7533;51.278;12.588;2023-03-31T05:03:15;98872.97;;;20.63;66.69
14882;BME280;7533;51.278;12.588;2023-03-31T05:08:18;98868.84;;;20.58;66.94
14882;BME280;7533;51.278;12.588;2023-03-31T05:13:21;98859.06;;;20.57;67.04
14882;BME280;7533;51.278;12.588;2023-03-31T05:18:25;98841.25;;;20.56;67.05
14882;BME280;7533;51.278;12.588;2023-03-31T05:23:28;98826.97;;;20.56;67.05
14882;BME280;7533;51.278;12.588;2023-03-31T05:28:31;98822.59;;;20.55;66.99
14882;BME280;7533;51.278;12.588;2023-03-31T05:33:35;98804.63;;;20.55;67.00
14882;BME280;7533;51.278;12.588;2023-03-31T05:38:41;98793.72;;;20.57;67.01
14882;BME280;7533;51.278;12.588;2023-03-31T05:43:44;98796.56;;;20.55;67.07
14882;BME280;7533;51.278;12.588;2023-03-31T05:48:48;98787.66;;;20.55;67.00
14882;BME280;7533;51.278;12.588;2023-03-31T05:53:51;98778.59;;;20.56;66.92
14882;BME280;7533;51.278;12.588;2023-03-31T05:58:54;98770.53;;;20.56;66.93
14882;BME280;7533;51.278;12.588;2023-03-31T06:03:58;98774.06;;;20.56;66.88
14882;BME280;7533;51.278;12.588;2023-03-31T06:09:01;98765.84;;;20.58;66.73
14882;BME280;7533;51.278;12.588;2023-03-31T06:14:04;98758.78;;;20.57;66.84
14882;BME280;7533;51.278;12.588;2023-03-31T06:19:08;98748.88;;;20.57;66.76
14882;BME280;7533;51.278;12.588;2023-03-31T06:24:11;98753.25;;;20.58;66.89
14882;BME280;7533;51.278;12.588;2023-03-31T06:29:14;98756.94;;;20.57;66.65
14882;BME280;7533;51.278;12.588;2023-03-31T06:34:18;98757.94;;;20.56;66.85
14882;BME280;7533;51.278;12.588;2023-03-31T06:39:22;98752.69;;;20.55;66.86
14882;BME280;7533;51.278;12.588;2023-03-31T06:44:28;98756.38;;;20.54;66.80
14882;BME280;7533;51.278;12.588;2023-03-31T06:49:34;98750.13;;;20.53;66.86
14882;BME280;7533;51.278;12.588;2023-03-31T06:54:37;98743.13;;;20.01;59.98
14882;BME280;7533;51.278;12.588;2023-03-31T06:59:40;98736.84;;;19.07;59.74
14882;BME280;7533;51.278;12.588;2023-03-31T07:04:44;98729.09;;;19.46;59.56
14882;BME280;7533;51.278;12.588;2023-03-31T07:09:47;98720.22;;;19.13;58.32
14882;BME280;7533;51.278;12.588;2023-03-31T07:14:50;98708.47;;;18.61;60.51
14882;BME280;7533;51.278;12.588;2023-03-31T07:19:54;98698.25;;;18.55;60.95
14882;BME280;7533;51.278;12.588;2023-03-31T07:24:56;98684.22;;;19.27;61.02
14882;BME280;7533;51.278;12.588;2023-03-31T07:29:59;98672.91;;;19.65;60.62
14882;BME280;7533;51.278;12.588;2023-03-31T07:35:04;98672.31;;;19.92;60.23
14882;BME280;7533;51.278;12.588;2023-03-31T07:40:09;98676.19;;;20.09;60.14
14882;BME280;7533;51.278;12.588;2023-03-31T07:45:12;98679.16;;;20.16;60.30
14882;BME280;7533;51.278;12.588;2023-03-31T07:50:17;98681.44;;;20.30;60.42
14882;BME280;7533;51.278;12.588;2023-03-31T07:55:22;98686.00;;;20.39;60.40
14882;BME280;7533;51.278;12.588;2023-03-31T08:00:26;98684.50;;;20.46;60.42
14882;BME280;7533;51.278;12.588;2023-03-31T08:05:31;98680.25;;;20.53;60.56
14882;BME280;7533;51.278;12.588;2023-03-31T08:10:34;98681.81;;;20.56;60.68
14882;BME280;7533;51.278;12.588;2023-03-31T08:15:37;98668.25;;;20.57;60.88
14882;BME280;7533;51.278;12.588;2023-03-31T08:20:41;98666.28;;;20.59;61.08
14882;BME280;7533;51.278;12.588;2023-03-31T08:25:44;98652.69;;;20.61;60.99
14882;BME280;7533;51.278;12.588;2023-03-31T08:30:47;98631.03;;;20.63;61.32
14882;BME280;7533;51.278;12.588;2023-03-31T08:35:52;98628.09;;;20.66;61.62
14882;BME280;7533;51.278;12.588;2023-03-31T08:40:58;98621.88;;;20.65;61.72
14882;BME280;7533;51.278;12.588;2023-03-31T08:46:02;98628.09;;;20.66;62.10
14882;BME280;7533;51.278;12.588;2023-03-31T08:51:14;98620.88;;;20.66;62.46
14882;BME280;7533;51.278;12.588;2023-03-31T08:56:21;98607.56;;;20.65;62.57
14882;BME280;7533;51.278;12.588;2023-03-31T09:01:32;98612.66;;;20.68;62.66
14882;BME280;7533;51.278;12.588;2023-03-31T09:07:01;98605.44;;;20.68;62.68
14882;BME280;7533;51.278;12.588;2023-03-31T09:12:10;98590.88;;;20.71;62.67
14882;BME280;7533;51.278;12.588;2023-03-31T09:17:20;98587.03;;;20.73;62.78
14882;BME280;7533;51.278;12.588;2023-03-31T09:22:31;98591.16;;;20.77;62.63
14882;BME280;7533;51.278;12.588;2023-03-31T09:27:34;98583.09;;;20.77;62.65
14882;BME280;7533;51.278;12.588;2023-03-31T09:32:41;98573.31;;;20.76;62.84
14882;BME280;7533;51.278;12.588;2023-03-31T09:37:47;98571.59;;;20.75;63.03
14882;BME280;7533;51.278;12.588;2023-03-31T09:42:55;98555.34;;;20.77;63.27
14882;BME280;7533;51.278;12.588;2023-03-31T09:48:01;98552.50;;;20.78;63.17
14882;BME280;7533;51.278;12.588;2023-03-31T09:53:14;98539.06;;;20.78;63.28
14882;BME280;7533;51.278;12.588;2023-03-31T09:58:20;98532.00;;;20.77;63.04
14882;BME280;7533;51.278;12.588;2023-03-31T10:03:25;98515.03;;;20.77;63.07
14882;BME280;7533;51.278;12.588;2023-03-31T10:08:31;98517.56;;;20.78;63.16
14882;BME280;7533;51.278;12.588;2023-03-31T10:13:42;98510.06;;;20.82;63.38
14882;BME280;7533;51.278;12.588;2023-03-31T10:18:47;98508.81;;;20.76;63.95
14882;BME280;7533;51.278;12.588;2023-03-31T10:23:52;98509.50;;;20.78;64.26
14882;BME280;7533;51.278;12.588;2023-03-31T10:28:56;98494.22;;;20.79;64.57
14882;BME280;7533;51.278;12.588;2023-03-31T10:34:04;98487.84;;;20.80;65.00
14882;BME280;7533;51.278;12.588;2023-03-31T10:39:14;98475.81;;;20.74;65.41
14882;BME280;7533;51.278;12.588;2023-03-31T10:44:32;98468.19;;;20.70;65.83
14882;BME280;7533;51.278;12.588;2023-03-31T10:49:37;98454.31;;;20.74;66.86
14882;BME280;7533;51.278;12.588;2023-03-31T10:54:47;98445.53;;;20.82;67.21
14882;BME280;7533;51.278;12.588;2023-03-31T11:00:02;98434.31;;;20.86;66.87
14882;BME280;7533;51.278;12.588;2023-03-31T11:05:15;98425.97;;;20.90;66.91
14882;BME280;7533;51.278;12.588;2023-03-31T11:10:36;98415.06;;;20.91;67.01
14882;BME280;7533;51.278;12.588;2023-03-31T11:15:47;98400.63;;;20.92;66.72
14882;BME280;7533;51.278;12.588;2023-03-31T11:21:02;98406.00;;;20.92;66.57
14882;BME280;7533;51.278;12.588;2023-03-31T11:26:15;98396.94;;;20.93;66.45
14882;BME280;7533;51.278;12.588;2023-03-31T11:31:36;98389.72;;;20.94;66.41
14882;BME280;7533;51.278;12.588;2023-03-31T11:36:59;98387.03;;;20.94;66.45
14882;BME280;7533;51.278;12.588;2023-03-31T11:42:14;98396.94;;;20.93;66.38
14882;BME280;7533;51.278;12.588;2023-03-31T11:47:23;98391.56;;;20.93;66.41
14882;BME280;7533;51.278;12.588;2023-03-31T11:52:29;98386.03;;;20.95;66.33
14882;BME280;7533;51.278;12.588;2023-03-31T11:57:39;98386.16;;;20.93;66.24
14882;BME280;7533;51.278;12.588;2023-03-31T12:02:47;98360.28;;;20.92;66.31
14882;BME280;7533;51.278;12.588;2023-03-31T12:07:57;98360.28;;;20.92;66.41
14882;BME280;7533;51.278;12.588;2023-03-31T12:13:22;98345.16;;;20.91;66.16
14882;BME280;7533;51.278;12.588;2023-03-31T12:18:31;98335.41;;;20.90;66.08
14882;BME280;7533;51.278;12.588;2023-03-31T12:23:40;98336.25;;;20.91;65.97
14882;BME280;7533;51.278;12.588;2023-03-31T12:28:57;98344.47;;;20.89;66.19
14882;BME280;7533;51.278;12.588;2023-03-31T12:34:04;98328.34;;;20.89;65.92
14882;BME280;7533;51.278;12.588;2023-03-31T12:39:22;98311.03;;;20.92;65.95
14882;BME280;7533;51.278;12.588;2023-03-31T12:44:37;98291.09;;;20.94;65.87
14882;BME280;7533;51.278;12.588;2023-03-31T12:49:54;98285.38;;;20.97;65.84
14882;BME280;7533;51.278;12.588;2023-03-31T12:55:31;98290.47;;;21.00;65.43
14882;BME280;7533;51.278;12.588;2023-03-31T13:00:36;98280.09;;;21.05;65.52
14882;BME280;7533;51.278;12.588;2023-03-31T13:05:48;98278.78;;;21.09;65.38
14882;BME280;7533;51.278;12.588;2023-03-31T13:10:55;98272.94;;;21.14;65.17
14882;BME280;7533;51.278;12.588;2023-03-31T13:16:01;98270.25;;;21.14;65.40
14882;BME280;7533;51.278;12.588;2023-03-31T13:21:04;98272.03;;;21.23;65.40
14882;BME280;7533;51.278;12.588;2023-03-31T13:26:34;98272.31;;;21.30;65.88
14882;BME280;7533;51.278;12.588;2023-03-31T13:37:29;98260.91;;;21.54;64.74
14882;BME280;7533;51.278;12.588;2023-03-31T13:48:36;98272.13;;;21.67;62.65
14882;BME280;7533;51.278;12.588;2023-03-31T13:54:01;98262.88;;;21.70;61.90
14882;BME280;7533;51.278;12.588;2023-03-31T13:59:27;98246.28;;;21.82;61.72
14882;BME280;7533;51.278;12.588;2023-03-31T14:04:49;98249.44;;;21.96;61.39
14882;BME280;7533;51.278;12.588;2023-03-31T14:10:00;98247.78;;;22.03;61.50
14882;BME280;7533;51.278;12.588;2023-03-31T14:15:06;98239.06;;;22.09;61.52
14882;BME280;7533;51.278;12.588;2023-03-31T14:20:21;98229.28;;;22.08;61.20
14882;BME280;7533;51.278;12.588;2023-03-31T14:25:39;98219.22;;;22.10;61.24
14882;BME280;7533;51.278;12.588;2023-03-31T14:30:52;98213.59;;;22.03;61.39
14882;BME280;7533;51.278;12.588;2023-03-31T14:36:10;98207.00;;;21.98;61.41
14882;BME280;7533;51.278;12.588;2023-03-31T14:41:20;98209.41;;;22.01;61.35
14882;BME280;7533;51.278;12.588;2023-03-31T14:46:31;98211.34;;;22.16;61.09
14882;BME280;7533;51.278;12.588;2023-03-31T14:56:46;98269.28;;;22.21;60.32
14882;BME280;7533;51.278;12.588;2023-03-31T15:01:50;98295.72;;;22.17;60.08
14882;BME280;7533;51.278;12.588;2023-03-31T15:06:53;98271.84;;;22.04;60.68
14882;BME280;7533;51.278;12.588;2023-03-31T15:12:00;98259.78;;;22.08;60.77
14882;BME280;7533;51.278;12.588;2023-03-31T15:17:04;98253.50;;;22.26;60.23
14882;BME280;7533;51.278;12.588;2023-03-31T15:22:11;98246.44;;;22.33;60.09
14882;BME280;7533;51.278;12.588;2023-03-31T15:27:27;98221.41;;;22.40;59.98
14882;BME280;7533;51.278;12.588;2023-03-31T15:32:38;98224.97;;;22.49;59.66
14882;BME280;7533;51.278;12.588;2023-03-31T15:37:42;98222.19;;;22.33;60.26
14882;BME280;7533;51.278;12.588;2023-03-31T15:42:48;98208.28;;;22.46;60.14
14882;BME280;7533;51.278;12.588;2023-03-31T15:48:16;98201.88;;;22.47;60.16
14882;BME280;7533;51.278;12.588;2023-03-31T15:53:24;98210.56;;;22.32;60.57
14882;BME280;7533;51.278;12.588;2023-03-31T15:59:03;98195.97;;;22.43;60.38
14882;BME280;7533;51.278;12.588;2023-03-31T16:04:08;98201.06;;;22.54;60.33
14882;BME280;7533;51.278;12.588;2023-03-31T16:09:16;98197.22;;;22.57;60.54
14882;BME280;7533;51.278;12.588;2023-03-31T16:14:26;98206.97;;;22.66;60.35
14882;BME280;7533;51.278;12.588;2023-03-31T16:19:40;98211.41;;;22.75;60.42
14882;BME280;7533;51.278;12.588;2023-03-31T16:24:45;98218.78;;;22.65;59.37
14882;BME280;7533;51.278;12.588;2023-03-31T16:29:49;98224.00;;;22.58;59.29
14882;BME280;7533;51.278;12.588;2023-03-31T16:34:54;98218.97;;;22.63;59.29
14882;BME280;7533;51.278;12.588;2023-03-31T16:39:57;98215.78;;;22.68;59.06
14882;BME280;7533;51.278;12.588;2023-03-31T16:45:01;98219.97;;;22.62;59.11
14882;BME280;7533;51.278;12.588;2023-03-31T16:50:15;98223.19;;;22.74;58.79
14882;BME280;7533;51.278;12.588;2023-03-31T16:55:18;98229.25;;;22.76;58.62
14882;BME280;7533;51.278;12.588;2023-03-31T17:00:22;98221.00;;;22.78;58.67
14882;BME280;7533;51.278;12.588;2023-03-31T17:05:25;98227.00;;;22.98;58.44
14882;BME280;7533;51.278;12.588;2023-03-31T17:10:28;98217.88;;;22.90;58.38
14882;BME280;7533;51.278;12.588;2023-03-31T17:15:33;98211.81;;;23.05;57.99
14882;BME280;7533;51.278;12.588;2023-03-31T17:20:37;98217.72;;;23.08;57.95
14882;BME280;7533;51.278;12.588;2023-03-31T17:25:46;98224.81;;;23.17;57.88
14882;BME280;7533;51.278;12.588;2023-03-31T17:30:50;98219.50;;;22.83;58.86
14882;BME280;7533;51.278;12.588;2023-03-31T17:35:55;98218.22;;;23.04;58.31
14882;BME280;7533;51.278;12.588;2023-03-31T17:41:01;98233.22;;;22.56;59.83
14882;BME280;7533;51.278;12.588;2023-03-31T17:46:07;98236.38;;;22.43;60.36
14882;BME280;7533;51.278;12.588;2023-03-31T17:51:14;98237.78;;;22.55;60.20
14882;BME280;7533;51.278;12.588;2023-03-31T17:56:18;98248.50;;;22.39;60.76
14882;BME280;7533;51.278;12.588;2023-03-31T18:01:22;98252.09;;;22.48;60.76
14882;BME280;7533;51.278;12.588;2023-03-31T18:06:25;98258.44;;;22.38;61.04
14882;BME280;7533;51.278;12.588;2023-03-31T18:11:28;98252.31;;;22.62;60.45
14882;BME280;7533;51.278;12.588;2023-03-31T18:16:33;98251.50;;;22.70;60.12
14882;BME280;7533;51.278;12.588;2023-03-31T18:21:37;98255.69;;;22.73;60.19
14882;BME280;7533;51.278;12.588;2023-03-31T18:26:40;98269.47;;;22.95;59.73
14882;BME280;7533;51.278;12.588;2023-03-31T18:31:44;98278.41;;;23.04;59.47
14882;BME280;7533;51.278;12.588;2023-03-31T18:36:48;98279.31;;;23.13;59.07
14882;BME280;7533;51.278;12.588;2023-03-31T18:41:51;98286.47;;;22.88;59.55
14882;BME280;7533;51.278;12.588;2023-03-31T18:46:56;98282.88;;;22.79;59.50
14882;BME280;7533;51.278;12.588;2023-03-31T18:51:59;98294.25;;;22.91;59.18
14882;BME280;7533;51.278;12.588;2023-03-31T18:57:04;98289.06;;;22.71;59.43
14882;BME280;7533;51.278;12.588;2023-03-31T19:02:11;98286.72;;;22.77;59.50
14882;BME280;7533;51.278;12.588;2023-03-31T19:07:14;98288.84;;;22.91;59.35
14882;BME280;7533;51.278;12.588;2023-03-31T19:12:18;98288.84;;;22.91;59.30
14882;BME280;7533;51.278;12.588;2023-03-31T19:17:24;98282.63;;;22.99;59.01
14882;BME280;7533;51.278;12.588;2023-03-31T19:22:27;98292.41;;;23.00;58.99
14882;BME280;7533;51.278;12.588;2023-03-31T19:27:31;98290.16;;;22.87;59.45
14882;BME280;7533;51.278;12.588;2023-03-31T19:32:36;98287.16;;;22.90;59.28
14882;BME280;7533;51.278;12.588;2023-03-31T19:37:39;98286.16;;;22.91;59.22
14882;BME280;7533;51.278;12.588;2023-03-31T19:42:42;98282.44;;;22.92;59.53
14882;BME280;7533;51.278;12.588;2023-03-31T19:47:46;98273.13;;;22.86;59.54
14882;BME280;7533;51.278;12.588;2023-03-31T19:52:49;98280.75;;;22.91;59.50
14882;BME280;7533;51.278;12.588;2023-03-31T19:57:52;98278.25;;;22.98;59.27
14882;BME280;7533;51.278;12.588;2023-03-31T20:02:56;98267.84;;;22.68;59.82
14882;BME280;7533;51.278;12.588;2023-03-31T20:08:01;98270.91;;;22.74;59.91
14882;BME280;7533;51.278;12.588;2023-03-31T20:13:04;98277.94;;;22.66;60.10
14882;BME280;7533;51.278;12.588;2023-03-31T20:18:08;98280.66;;;22.75;60.04
14882;BME280;7533;51.278;12.588;2023-03-31T20:23:14;98276.97;;;22.76;59.85
14882;BME280;7533;51.278;12.588;2023-03-31T20:28:18;98277.84;;;22.84;59.66
14882;BME280;7533;51.278;12.588;2023-03-31T20:33:23;98283.53;;;22.73;60.09
14882;BME280;7533;51.278;12.588;2023-03-31T20:38:26;98275.50;;;22.89;59.82
14882;BME280;7533;51.278;12.588;2023-03-31T20:43:30;98277.94;;;22.66;59.87
14882;BME280;7533;51.278;12.588;2023-03-31T20:48:36;98280.22;;;22.45;61.09
14882;BME280;7533;51.278;12.588;2023-03-31T20:53:41;98282.22;;;22.43;61.32
14882;BME280;7533;51.278;12.588;2023-03-31T20:58:45;98285.63;;;22.45;61.46
14882;BME280;7533;51.278;12.588;2023-03-31T21:03:49;98282.56;;;22.40;61.50
14882;BME280;7533;51.278;12.588;2023-03-31T21:08:54;98288.34;;;22.53;61.53
14882;BME280;7533;51.278;12.588;2023-03-31T21:13:58;98296.41;;;22.45;61.60
14882;BME280;7533;51.278;12.588;2023-03-31T21:19:02;98297.19;;;22.37;62.00
14882;BME280;7533;51.278;12.588;2023-03-31T21:24:05;98293.38;;;22.48;61.96
14882;BME280;7533;51.278;12.588;2023-03-31T21:29:09;98294.53;;;22.46;61.95
14882;BME280;7533;51.278;12.588;2023-03-31T21:34:13;98297.53;;;22.42;62.23
14882;BME280;7533;51.278;12.588;2023-03-31T21:39:16;98291.69;;;22.47;61.98
14882;BME280;7533;51.278;12.588;2023-03-31T21:44:20;98302.28;;;22.49;61.99
14882;BME280;7533;51.278;12.588;2023-03-31T21:49:25;98298.09;;;22.54;62.00
14882;BME280;7533;51.278;12.588;2023-03-31T21:54:29;98302.09;;;22.42;62.21
14882;BME280;7533;51.278;12.588;2023-03-31T21:59:32;98304.81;;;22.50;62.10
14882;BME280;7533;51.278;12.588;2023-03-31T22:04:36;98298.22;;;22.44;62.28
14882;BME280;7533;51.278;12.588;2023-03-31T22:09:39;98305.81;;;22.41;62.30
14882;BME280;7533;51.278;12.588;2023-03-31T22:14:42;98300.06;;;22.44;62.29
14882;BME280;7533;51.278;12.588;2023-03-31T22:19:46;98300.56;;;22.39;62.56
14882;BME280;7533;51.278;12.588;2023-03-31T22:24:49;98306.47;;;22.43;62.58
14882;BME280;7533;51.278;12.588;2023-03-31T22:29:52;98302.94;;;22.42;62.36
14882;BME280;7533;51.278;12.588;2023-03-31T22:34:56;98311.03;;;22.42;62.64
14882;BME280;7533;51.278;12.588;2023-03-31T22:39:59;98314.91;;;22.40;62.49
14882;BME280;7533;51.278;12.588;2023-03-31T22:45:03;98312.69;;;22.35;62.62
14882;BME280;7533;51.278;12.588;2023-03-31T22:50:08;98306.25;;;22.28;62.72
14882;BME280;7533;51.278;12.588;2023-03-31T22:55:11;98305.53;;;22.60;62.59
14882;BME280;7533;51.278;12.588;2023-03-31T23:00:15;98302.53;;;22.98;61.35
14882;BME280;7533;51.278;12.588;2023-03-31T23:05:19;98309.28;;;23.02;61.34
14882;BME280;7533;51.278;12.588;2023-03-31T23:10:24;98310.97;;;23.03;61.40
14882;BME280;7533;51.278;12.588;2023-03-31T23:15:27;98307.94;;;23.06;61.41
14882;BME280;7533;51.278;12.588;2023-03-31T23:20:32;98313.00;;;23.09;61.30
14882;BME280;7533;51.278;12.588;2023-03-31T23:25:35;98315.53;;;23.02;61.47
14882;BME280;7533;51.278;12.588;2023-03-31T23:30:37;98307.91;;;22.98;61.77
14882;BME280;7533;51.278;12.588;2023-03-31T23:35:43;98301.56;;;23.07;61.56
14882;BME280;7533;51.278;12.588;2023-03-31T23:40:45;98307.25;;;23.12;61.65
14882;BME280;7533;51.278;12.588;2023-03-31T23:45:49;98307.09;;;23.05;61.78
14882;BME280;7533;51.278;12.588;2023-03-31T23:50:53;98308.13;;;23.20;61.43
14882;BME280;7533;51.278;12.588;2023-03-31T23:55:57;98306.06;;;23.06;61.77
